sensor_id;sensor_type;location;lat;lon;timestamp;P1;durP1;ratioP1;P2;durP2;ratioP2
9496;SDS011;4786;51.270;4.456;2023-05-10T00:00:33;16.30;;;14.60;;
9496;SDS011;4786;51.270;4.456;2023-05-10T00:02:59;17.60;;;15.70;;
9496;SDS011;4786;51.270;4.456;2023-05-10T00:05:25;19.37;;;17.23;;
9496;SDS011;4786;51.270;4.456;2023-05-10T00:07:51;17.63;;;15.83;;
9496;SDS011;4786;51.270;4.456;2023-05-10T00:10:17;16.47;;;14.77;;
9496;SDS011;4786;51.270;4.456;2023-05-10T00:12:43;17.50;;;15.40;;
9496;SDS011;4786;51.270;4.456;2023-05-10T00:15:10;20.27;;;16.80;;
9496;SDS011;4786;51.270;4.456;2023-05-10T00:17:36;18.23;;;15.67;;
9496;SDS011;4786;51.270;4.456;2023-05-10T00:20:02;17.80;;;15.90;;
9496;SDS011;4786;51.270;4.456;2023-05-10T00:22:29;18.27;;;16.23;;
9496;SDS011;4786;51.270;4.456;2023-05-10T00:24:56;19.00;;;16.07;;
9496;SDS011;4786;51.270;4.456;2023-05-10T00:27:23;19.73;;;16.10;;
9496;SDS011;4786;51.270;4.456;2023-05-10T00:29:49;20.07;;;16.30;;
9496;SDS011;4786;51.270;4.456;2023-05-10T00:32:15;21.83;;;16.27;;
9496;SDS011;4786;51.270;4.456;2023-05-10T00:34:41;19.07;;;16.47;;
9496;SDS011;4786;51.270;4.456;2023-05-10T00:37:07;17.57;;;15.67;;
9496;SDS011;4786;51.270;4.456;2023-05-10T00:39:33;20.17;;;15.73;;
9496;SDS011;4786;51.270;4.456;2023-05-10T00:41:59;17.93;;;16.00;;
9496;SDS011;4786;51.270;4.456;2023-05-10T00:44:25;20.40;;;16.37;;
9496;SDS011;4786;51.270;4.456;2023-05-10T00:46:51;23.87;;;18.67;;
9496;SDS011;4786;51.270;4.456;2023-05-10T00:49:18;20.37;;;16.37;;
9496;SDS011;4786;51.270;4.456;2023-05-10T00:51:46;18.40;;;16.07;;
9496;SDS011;4786;51.270;4.456;2023-05-10T00:54:12;19.03;;;16.50;;
9496;SDS011;4786;51.270;4.456;2023-05-10T00:56:40;24.80;;;18.13;;
9496;SDS011;4786;51.270;4.456;2023-05-10T00:59:07;22.40;;;18.00;;
9496;SDS011;4786;51.270;4.456;2023-05-10T01:01:35;19.73;;;17.47;;
9496;SDS011;4786;51.270;4.456;2023-05-10T01:04:02;19.97;;;17.73;;
9496;SDS011;4786;51.270;4.456;2023-05-10T01:06:28;24.03;;;18.87;;
9496;SDS011;4786;51.270;4.456;2023-05-10T01:08:54;23.27;;;18.70;;
9496;SDS011;4786;51.270;4.456;2023-05-10T01:11:20;19.00;;;16.63;;
9496;SDS011;4786;51.270;4.456;2023-05-10T01:13:47;20.80;;;16.10;;
9496;SDS011;4786;51.270;4.456;2023-05-10T01:16:20;19.47;;;16.37;;
9496;SDS011;4786;51.270;4.456;2023-05-10T01:18:46;25.63;;;17.20;;
9496;SDS011;4786;51.270;4.456;2023-05-10T01:34:55;29.87;;;20.70;;
9496;SDS011;4786;51.270;4.456;2023-05-10T01:37:30;27.97;;;22.83;;
9496;SDS011;4786;51.270;4.456;2023-05-10T01:42:51;40.53;;;29.20;;
9496;SDS011;4786;51.270;4.456;2023-05-10T01:45:23;38.23;;;28.50;;
9496;SDS011;4786;51.270;4.456;2023-05-10T01:47:58;43.17;;;33.17;;
9496;SDS011;4786;51.270;4.456;2023-05-10T01:50:41;39.90;;;30.17;;
9496;SDS011;4786;51.270;4.456;2023-05-10T01:53:10;39.10;;;30.47;;
9496;SDS011;4786;51.270;4.456;2023-05-10T01:55:55;34.40;;;27.40;;
9496;SDS011;4786;51.270;4.456;2023-05-10T01:58:25;32.43;;;25.20;;
9496;SDS011;4786;51.270;4.456;2023-05-10T02:00:55;28.53;;;24.77;;
9496;SDS011;4786;51.270;4.456;2023-05-10T02:03:23;28.57;;;23.57;;
9496;SDS011;4786;51.270;4.456;2023-05-10T02:05:51;27.33;;;22.97;;
9496;SDS011;4786;51.270;4.456;2023-05-10T02:08:19;26.47;;;22.40;;
9496;SDS011;4786;51.270;4.456;2023-05-10T02:10:48;47.27;;;42.13;;
9496;SDS011;4786;51.270;4.456;2023-05-10T02:13:16;62.10;;;54.00;;
9496;SDS011;4786;51.270;4.456;2023-05-10T02:15:43;62.07;;;55.47;;
9496;SDS011;4786;51.270;4.456;2023-05-10T02:18:12;66.60;;;59.33;;
9496;SDS011;4786;51.270;4.456;2023-05-10T02:20:39;60.63;;;53.03;;
9496;SDS011;4786;51.270;4.456;2023-05-10T02:23:06;63.67;;;56.97;;
9496;SDS011;4786;51.270;4.456;2023-05-10T02:25:33;49.97;;;43.20;;
9496;SDS011;4786;51.270;4.456;2023-05-10T02:28:01;44.87;;;39.57;;
9496;SDS011;4786;51.270;4.456;2023-05-10T02:30:29;45.43;;;38.10;;
9496;SDS011;4786;51.270;4.456;2023-05-10T02:32:57;42.20;;;33.97;;
9496;SDS011;4786;51.270;4.456;2023-05-10T02:35:23;37.77;;;32.77;;
9496;SDS011;4786;51.270;4.456;2023-05-10T02:37:51;41.30;;;33.37;;
9496;SDS011;4786;51.270;4.456;2023-05-10T02:40:19;38.27;;;30.93;;
9496;SDS011;4786;51.270;4.456;2023-05-10T02:42:47;47.43;;;35.67;;
9496;SDS011;4786;51.270;4.456;2023-05-10T02:45:17;51.83;;;38.03;;
9496;SDS011;4786;51.270;4.456;2023-05-10T02:47:45;57.27;;;42.37;;
9496;SDS011;4786;51.270;4.456;2023-05-10T02:50:12;60.30;;;43.50;;
9496;SDS011;4786;51.270;4.456;2023-05-10T02:52:39;61.03;;;46.53;;
9496;SDS011;4786;51.270;4.456;2023-05-10T02:55:11;54.87;;;42.63;;
9496;SDS011;4786;51.270;4.456;2023-05-10T02:57:41;50.73;;;40.43;;
9496;SDS011;4786;51.270;4.456;2023-05-10T03:00:13;40.43;;;32.77;;
9496;SDS011;4786;51.270;4.456;2023-05-10T03:02:39;33.80;;;29.57;;
9496;SDS011;4786;51.270;4.456;2023-05-10T03:05:06;34.83;;;29.57;;
9496;SDS011;4786;51.270;4.456;2023-05-10T03:07:32;34.33;;;28.87;;
9496;SDS011;4786;51.270;4.456;2023-05-10T03:09:58;31.53;;;26.77;;
9496;SDS011;4786;51.270;4.456;2023-05-10T03:15:19;32.13;;;28.33;;
9496;SDS011;4786;51.270;4.456;2023-05-10T03:18:12;35.03;;;29.00;;
9496;SDS011;4786;51.270;4.456;2023-05-10T03:20:50;32.57;;;28.63;;
9496;SDS011;4786;51.270;4.456;2023-05-10T03:23:22;33.80;;;27.33;;
9496;SDS011;4786;51.270;4.456;2023-05-10T03:25:57;28.27;;;24.70;;
9496;SDS011;4786;51.270;4.456;2023-05-10T03:28:25;29.47;;;25.03;;
9496;SDS011;4786;51.270;4.456;2023-05-10T03:30:52;28.37;;;22.93;;
9496;SDS011;4786;51.270;4.456;2023-05-10T03:33:19;28.03;;;23.90;;
9496;SDS011;4786;51.270;4.456;2023-05-10T03:35:46;27.67;;;23.07;;
9496;SDS011;4786;51.270;4.456;2023-05-10T03:38:12;24.53;;;21.50;;
9496;SDS011;4786;51.270;4.456;2023-05-10T03:40:38;26.10;;;20.70;;
9496;SDS011;4786;51.270;4.456;2023-05-10T03:43:04;26.00;;;21.53;;
9496;SDS011;4786;51.270;4.456;2023-05-10T03:45:30;22.33;;;19.93;;
9496;SDS011;4786;51.270;4.456;2023-05-10T03:47:56;22.80;;;19.60;;
9496;SDS011;4786;51.270;4.456;2023-05-10T03:50:22;27.43;;;21.77;;
9496;SDS011;4786;51.270;4.456;2023-05-10T03:52:48;23.93;;;20.80;;
9496;SDS011;4786;51.270;4.456;2023-05-10T03:55:15;25.93;;;21.37;;
9496;SDS011;4786;51.270;4.456;2023-05-10T03:57:41;22.90;;;19.13;;
9496;SDS011;4786;51.270;4.456;2023-05-10T04:00:07;23.27;;;19.27;;
9496;SDS011;4786;51.270;4.456;2023-05-10T04:02:33;23.93;;;20.33;;
9496;SDS011;4786;51.270;4.456;2023-05-10T04:05:00;22.53;;;20.13;;
9496;SDS011;4786;51.270;4.456;2023-05-10T04:07:26;25.77;;;20.60;;
9496;SDS011;4786;51.270;4.456;2023-05-10T04:09:52;23.83;;;19.73;;
9496;SDS011;4786;51.270;4.456;2023-05-10T04:12:18;23.30;;;19.80;;
9496;SDS011;4786;51.270;4.456;2023-05-10T04:14:44;21.53;;;18.17;;
9496;SDS011;4786;51.270;4.456;2023-05-10T04:17:10;20.07;;;17.23;;
9496;SDS011;4786;51.270;4.456;2023-05-10T04:19:36;19.67;;;17.40;;
9496;SDS011;4786;51.270;4.456;2023-05-10T04:22:02;24.87;;;18.13;;
9496;SDS011;4786;51.270;4.456;2023-05-10T04:24:28;21.30;;;18.83;;
9496;SDS011;4786;51.270;4.456;2023-05-10T04:26:55;20.70;;;18.03;;
9496;SDS011;4786;51.270;4.456;2023-05-10T04:29:20;21.63;;;17.33;;
9496;SDS011;4786;51.270;4.456;2023-05-10T04:31:46;23.80;;;19.23;;
9496;SDS011;4786;51.270;4.456;2023-05-10T04:34:12;20.13;;;17.30;;
9496;SDS011;4786;51.270;4.456;2023-05-10T04:36:38;23.93;;;18.77;;
9496;SDS011;4786;51.270;4.456;2023-05-10T04:39:04;22.70;;;16.90;;
9496;SDS011;4786;51.270;4.456;2023-05-10T04:41:30;22.40;;;17.07;;
9496;SDS011;4786;51.270;4.456;2023-05-10T04:43:57;19.30;;;15.57;;
9496;SDS011;4786;51.270;4.456;2023-05-10T04:46:23;20.83;;;16.57;;
9496;SDS011;4786;51.270;4.456;2023-05-10T04:48:49;21.60;;;16.40;;
9496;SDS011;4786;51.270;4.456;2023-05-10T04:51:15;19.10;;;15.43;;
9496;SDS011;4786;51.270;4.456;2023-05-10T04:53:41;19.27;;;16.17;;
9496;SDS011;4786;51.270;4.456;2023-05-10T04:56:07;16.67;;;13.67;;
9496;SDS011;4786;51.270;4.456;2023-05-10T04:58:33;14.57;;;12.47;;
9496;SDS011;4786;51.270;4.456;2023-05-10T05:01:08;13.50;;;12.00;;
9496;SDS011;4786;51.270;4.456;2023-05-10T05:03:35;14.67;;;10.70;;
9496;SDS011;4786;51.270;4.456;2023-05-10T05:06:01;12.80;;;10.27;;
9496;SDS011;4786;51.270;4.456;2023-05-10T05:08:27;15.67;;;10.37;;
9496;SDS011;4786;51.270;4.456;2023-05-10T05:10:53;11.43;;;8.97;;
9496;SDS011;4786;51.270;4.456;2023-05-10T05:13:19;14.63;;;9.50;;
9496;SDS011;4786;51.270;4.456;2023-05-10T05:15:45;10.10;;;8.43;;
9496;SDS011;4786;51.270;4.456;2023-05-10T05:18:11;12.77;;;9.23;;
9496;SDS011;4786;51.270;4.456;2023-05-10T05:20:37;9.60;;;8.30;;
9496;SDS011;4786;51.270;4.456;2023-05-10T05:23:03;8.57;;;6.27;;
9496;SDS011;4786;51.270;4.456;2023-05-10T05:25:28;10.03;;;5.93;;
9496;SDS011;4786;51.270;4.456;2023-05-10T05:27:54;7.03;;;5.87;;
9496;SDS011;4786;51.270;4.456;2023-05-10T05:30:20;6.70;;;5.80;;
9496;SDS011;4786;51.270;4.456;2023-05-10T05:32:45;8.57;;;6.10;;
9496;SDS011;4786;51.270;4.456;2023-05-10T05:35:31;7.73;;;5.47;;
9496;SDS011;4786;51.270;4.456;2023-05-10T05:37:57;8.73;;;7.40;;
9496;SDS011;4786;51.270;4.456;2023-05-10T05:40:22;8.73;;;7.90;;
9496;SDS011;4786;51.270;4.456;2023-05-10T05:42:48;10.13;;;7.43;;
9496;SDS011;4786;51.270;4.456;2023-05-10T05:45:14;9.43;;;8.13;;
9496;SDS011;4786;51.270;4.456;2023-05-10T05:47:40;12.37;;;9.13;;
9496;SDS011;4786;51.270;4.456;2023-05-10T05:50:06;11.30;;;10.03;;
9496;SDS011;4786;51.270;4.456;2023-05-10T05:52:32;12.63;;;11.33;;
9496;SDS011;4786;51.270;4.456;2023-05-10T05:54:58;13.73;;;11.70;;
9496;SDS011;4786;51.270;4.456;2023-05-10T05:57:24;19.57;;;13.27;;
9496;SDS011;4786;51.270;4.456;2023-05-10T05:59:51;13.57;;;12.20;;
9496;SDS011;4786;51.270;4.456;2023-05-10T06:02:17;14.20;;;12.80;;
9496;SDS011;4786;51.270;4.456;2023-05-10T06:04:43;13.70;;;12.30;;
9496;SDS011;4786;51.270;4.456;2023-05-10T06:07:10;13.93;;;12.53;;
9496;SDS011;4786;51.270;4.456;2023-05-10T06:09:36;13.23;;;11.40;;
9496;SDS011;4786;51.270;4.456;2023-05-10T06:12:01;13.30;;;11.90;;
9496;SDS011;4786;51.270;4.456;2023-05-10T06:14:27;17.40;;;13.50;;
9496;SDS011;4786;51.270;4.456;2023-05-10T06:16:54;17.43;;;15.63;;
9496;SDS011;4786;51.270;4.456;2023-05-10T06:19:20;19.17;;;17.07;;
9496;SDS011;4786;51.270;4.456;2023-05-10T06:21:45;18.53;;;16.70;;
9496;SDS011;4786;51.270;4.456;2023-05-10T06:24:11;19.30;;;16.67;;
9496;SDS011;4786;51.270;4.456;2023-05-10T06:26:37;19.30;;;17.27;;
9496;SDS011;4786;51.270;4.456;2023-05-10T06:29:03;18.77;;;16.77;;
9496;SDS011;4786;51.270;4.456;2023-05-10T06:31:29;17.07;;;15.27;;
9496;SDS011;4786;51.270;4.456;2023-05-10T06:33:55;17.13;;;14.90;;
9496;SDS011;4786;51.270;4.456;2023-05-10T06:36:21;16.97;;;14.57;;
9496;SDS011;4786;51.270;4.456;2023-05-10T06:38:47;14.70;;;13.20;;
9496;SDS011;4786;51.270;4.456;2023-05-10T06:41:13;15.67;;;14.07;;
9496;SDS011;4786;51.270;4.456;2023-05-10T06:43:39;14.97;;;13.47;;
9496;SDS011;4786;51.270;4.456;2023-05-10T06:46:06;16.20;;;14.70;;
9496;SDS011;4786;51.270;4.456;2023-05-10T06:48:33;16.13;;;14.53;;
9496;SDS011;4786;51.270;4.456;2023-05-10T06:50:58;16.80;;;15.13;;
9496;SDS011;4786;51.270;4.456;2023-05-10T06:53:25;16.47;;;14.87;;
9496;SDS011;4786;51.270;4.456;2023-05-10T06:55:51;17.80;;;16.13;;
9496;SDS011;4786;51.270;4.456;2023-05-10T06:58:17;18.67;;;16.87;;
9496;SDS011;4786;51.270;4.456;2023-05-10T07:00:43;17.43;;;15.67;;
9496;SDS011;4786;51.270;4.456;2023-05-10T07:03:10;18.10;;;16.30;;
9496;SDS011;4786;51.270;4.456;2023-05-10T07:05:36;18.47;;;15.40;;
9496;SDS011;4786;51.270;4.456;2023-05-10T07:08:02;17.53;;;15.83;;
9496;SDS011;4786;51.270;4.456;2023-05-10T07:10:28;17.77;;;15.47;;
9496;SDS011;4786;51.270;4.456;2023-05-10T07:12:54;17.40;;;15.50;;
9496;SDS011;4786;51.270;4.456;2023-05-10T07:15:21;19.83;;;13.57;;
9496;SDS011;4786;51.270;4.456;2023-05-10T07:17:47;13.63;;;12.03;;
9496;SDS011;4786;51.270;4.456;2023-05-10T07:20:13;17.43;;;12.23;;
9496;SDS011;4786;51.270;4.456;2023-05-10T07:22:39;14.67;;;12.23;;
9496;SDS011;4786;51.270;4.456;2023-05-10T07:25:05;14.53;;;11.63;;
9496;SDS011;4786;51.270;4.456;2023-05-10T07:27:31;12.03;;;10.93;;
9496;SDS011;4786;51.270;4.456;2023-05-10T07:29:57;11.40;;;10.30;;
9496;SDS011;4786;51.270;4.456;2023-05-10T07:32:23;10.47;;;9.43;;
9496;SDS011;4786;51.270;4.456;2023-05-10T07:34:49;10.70;;;9.13;;
9496;SDS011;4786;51.270;4.456;2023-05-10T07:37:15;13.17;;;9.30;;
9496;SDS011;4786;51.270;4.456;2023-05-10T07:39:41;12.03;;;10.83;;
9496;SDS011;4786;51.270;4.456;2023-05-10T07:42:07;16.47;;;12.00;;
9496;SDS011;4786;51.270;4.456;2023-05-10T07:44:33;11.80;;;10.60;;
9496;SDS011;4786;51.270;4.456;2023-05-10T07:46:59;12.10;;;11.00;;
9496;SDS011;4786;51.270;4.456;2023-05-10T07:49:26;12.37;;;10.87;;
9496;SDS011;4786;51.270;4.456;2023-05-10T07:51:52;11.77;;;10.73;;
9496;SDS011;4786;51.270;4.456;2023-05-10T07:54:18;10.60;;;9.60;;
9496;SDS011;4786;51.270;4.456;2023-05-10T07:56:44;8.23;;;7.53;;
9496;SDS011;4786;51.270;4.456;2023-05-10T07:59:14;8.17;;;7.47;;
9496;SDS011;4786;51.270;4.456;2023-05-10T08:01:41;8.27;;;7.53;;
9496;SDS011;4786;51.270;4.456;2023-05-10T08:04:07;8.33;;;7.60;;
9496;SDS011;4786;51.270;4.456;2023-05-10T08:06:33;7.90;;;7.20;;
9496;SDS011;4786;51.270;4.456;2023-05-10T08:09:00;7.50;;;6.80;;
9496;SDS011;4786;51.270;4.456;2023-05-10T08:11:26;8.90;;;6.60;;
9496;SDS011;4786;51.270;4.456;2023-05-10T08:13:53;6.60;;;6.00;;
9496;SDS011;4786;51.270;4.456;2023-05-10T08:16:19;7.00;;;6.30;;
9496;SDS011;4786;51.270;4.456;2023-05-10T08:18:45;10.33;;;8.00;;
9496;SDS011;4786;51.270;4.456;2023-05-10T08:21:13;7.37;;;6.73;;
9496;SDS011;4786;51.270;4.456;2023-05-10T08:23:39;7.87;;;7.10;;
9496;SDS011;4786;51.270;4.456;2023-05-10T08:26:05;8.13;;;7.33;;
9496;SDS011;4786;51.270;4.456;2023-05-10T08:28:31;7.07;;;6.37;;
9496;SDS011;4786;51.270;4.456;2023-05-10T08:30:57;7.40;;;6.60;;
9496;SDS011;4786;51.270;4.456;2023-05-10T08:33:22;7.70;;;6.90;;
9496;SDS011;4786;51.270;4.456;2023-05-10T08:35:49;8.00;;;6.57;;
9496;SDS011;4786;51.270;4.456;2023-05-10T08:38:15;6.80;;;6.10;;
9496;SDS011;4786;51.270;4.456;2023-05-10T08:40:42;6.93;;;6.33;;
9496;SDS011;4786;51.270;4.456;2023-05-10T08:43:09;5.83;;;4.83;;
9496;SDS011;4786;51.270;4.456;2023-05-10T08:45:38;9.17;;;6.60;;
9496;SDS011;4786;51.270;4.456;2023-05-10T08:48:07;7.17;;;6.47;;
9496;SDS011;4786;51.270;4.456;2023-05-10T08:50:37;8.03;;;6.37;;
9496;SDS011;4786;51.270;4.456;2023-05-10T08:53:06;5.83;;;5.23;;
9496;SDS011;4786;51.270;4.456;2023-05-10T08:55:36;5.70;;;4.90;;
9496;SDS011;4786;51.270;4.456;2023-05-10T08:58:03;5.57;;;5.00;;
9496;SDS011;4786;51.270;4.456;2023-05-10T09:00:30;6.70;;;4.60;;
9496;SDS011;4786;51.270;4.456;2023-05-10T09:02:57;4.80;;;4.07;;
9496;SDS011;4786;51.270;4.456;2023-05-10T09:05:24;4.13;;;3.77;;
9496;SDS011;4786;51.270;4.456;2023-05-10T09:07:50;4.40;;;3.43;;
9496;SDS011;4786;51.270;4.456;2023-05-10T09:10:16;3.57;;;3.07;;
9496;SDS011;4786;51.270;4.456;2023-05-10T09:12:43;3.63;;;3.33;;
9496;SDS011;4786;51.270;4.456;2023-05-10T09:15:10;6.07;;;3.20;;
9496;SDS011;4786;51.270;4.456;2023-05-10T09:17:38;4.00;;;3.70;;
9496;SDS011;4786;51.270;4.456;2023-05-10T09:20:05;4.53;;;3.77;;
9496;SDS011;4786;51.270;4.456;2023-05-10T09:22:32;6.00;;;5.47;;
9496;SDS011;4786;51.270;4.456;2023-05-10T09:27:39;6.33;;;4.40;;
9496;SDS011;4786;51.270;4.456;2023-05-10T09:30:06;5.33;;;4.90;;
9496;SDS011;4786;51.270;4.456;2023-05-10T09:32:43;6.73;;;6.07;;
9496;SDS011;4786;51.270;4.456;2023-05-10T09:35:12;7.80;;;5.90;;
9496;SDS011;4786;51.270;4.456;2023-05-10T09:37:40;6.40;;;5.40;;
9496;SDS011;4786;51.270;4.456;2023-05-10T09:40:11;6.43;;;5.20;;
9496;SDS011;4786;51.270;4.456;2023-05-10T09:42:42;6.13;;;5.63;;
9496;SDS011;4786;51.270;4.456;2023-05-10T09:45:15;5.67;;;5.17;;
9496;SDS011;4786;51.270;4.456;2023-05-10T09:47:42;7.57;;;5.90;;
9496;SDS011;4786;51.270;4.456;2023-05-10T09:50:10;5.87;;;5.40;;
9496;SDS011;4786;51.270;4.456;2023-05-10T09:52:56;5.37;;;4.97;;
9496;SDS011;4786;51.270;4.456;2023-05-10T09:55:38;5.57;;;5.07;;
9496;SDS011;4786;51.270;4.456;2023-05-10T09:58:06;5.13;;;4.63;;
9496;SDS011;4786;51.270;4.456;2023-05-10T10:00:35;6.90;;;6.20;;
9496;SDS011;4786;51.270;4.456;2023-05-10T10:03:03;8.70;;;6.73;;
9496;SDS011;4786;51.270;4.456;2023-05-10T10:05:30;9.80;;;8.70;;
9496;SDS011;4786;51.270;4.456;2023-05-10T10:07:57;10.13;;;8.77;;
9496;SDS011;4786;51.270;4.456;2023-05-10T10:10:25;14.23;;;11.70;;
9496;SDS011;4786;51.270;4.456;2023-05-10T10:12:51;14.03;;;11.50;;
9496;SDS011;4786;51.270;4.456;2023-05-10T10:15:18;14.37;;;12.87;;
9496;SDS011;4786;51.270;4.456;2023-05-10T10:17:45;19.63;;;15.57;;
9496;SDS011;4786;51.270;4.456;2023-05-10T10:20:11;20.17;;;17.33;;
9496;SDS011;4786;51.270;4.456;2023-05-10T10:22:38;19.83;;;16.90;;
9496;SDS011;4786;51.270;4.456;2023-05-10T10:25:03;18.60;;;16.37;;
9496;SDS011;4786;51.270;4.456;2023-05-10T10:35:55;19.77;;;17.40;;
9496;SDS011;4786;51.270;4.456;2023-05-10T10:38:37;21.80;;;18.53;;
9496;SDS011;4786;51.270;4.456;2023-05-10T10:50:05;20.83;;;18.63;;
9496;SDS011;4786;51.270;4.456;2023-05-10T10:55:09;21.83;;;15.83;;
9496;SDS011;4786;51.270;4.456;2023-05-10T10:57:57;18.27;;;15.57;;
9496;SDS011;4786;51.270;4.456;2023-05-10T11:00:29;18.43;;;13.93;;
9496;SDS011;4786;51.270;4.456;2023-05-10T11:02:58;17.37;;;12.80;;
9496;SDS011;4786;51.270;4.456;2023-05-10T11:16:40;15.70;;;12.50;;
9496;SDS011;4786;51.270;4.456;2023-05-10T11:19:12;16.13;;;12.67;;
9496;SDS011;4786;51.270;4.456;2023-05-10T11:21:47;16.67;;;12.57;;
9496;SDS011;4786;51.270;4.456;2023-05-10T11:24:19;16.13;;;13.23;;
9496;SDS011;4786;51.270;4.456;2023-05-10T11:26:52;13.23;;;11.63;;
9496;SDS011;4786;51.270;4.456;2023-05-10T11:29:19;16.63;;;12.40;;
9496;SDS011;4786;51.270;4.456;2023-05-10T11:31:46;15.83;;;12.30;;
9496;SDS011;4786;51.270;4.456;2023-05-10T11:34:31;17.10;;;12.77;;
9496;SDS011;4786;51.270;4.456;2023-05-10T11:37:00;15.63;;;12.60;;
9496;SDS011;4786;51.270;4.456;2023-05-10T11:39:27;13.80;;;12.27;;
9496;SDS011;4786;51.270;4.456;2023-05-10T11:41:57;16.50;;;13.10;;
9496;SDS011;4786;51.270;4.456;2023-05-10T11:44:23;14.97;;;13.30;;
9496;SDS011;4786;51.270;4.456;2023-05-10T11:46:58;15.03;;;12.83;;
9496;SDS011;4786;51.270;4.456;2023-05-10T11:49:25;15.77;;;12.60;;
9496;SDS011;4786;51.270;4.456;2023-05-10T11:51:51;16.30;;;12.40;;
9496;SDS011;4786;51.270;4.456;2023-05-10T11:54:17;13.80;;;12.47;;
9496;SDS011;4786;51.270;4.456;2023-05-10T11:56:43;13.77;;;12.37;;
9496;SDS011;4786;51.270;4.456;2023-05-10T11:59:10;20.87;;;12.87;;
9496;SDS011;4786;51.270;4.456;2023-05-10T12:01:39;13.40;;;11.83;;
9496;SDS011;4786;51.270;4.456;2023-05-10T12:04:05;15.00;;;12.47;;
9496;SDS011;4786;51.270;4.456;2023-05-10T12:06:32;15.47;;;12.77;;
9496;SDS011;4786;51.270;4.456;2023-05-10T12:09:01;13.40;;;12.00;;
9496;SDS011;4786;51.270;4.456;2023-05-10T12:11:31;13.57;;;12.17;;
9496;SDS011;4786;51.270;4.456;2023-05-10T12:14:03;15.00;;;12.33;;
9496;SDS011;4786;51.270;4.456;2023-05-10T12:16:30;13.10;;;11.47;;
9496;SDS011;4786;51.270;4.456;2023-05-10T12:18:57;16.47;;;13.00;;
9496;SDS011;4786;51.270;4.456;2023-05-10T12:21:24;14.20;;;11.43;;
9496;SDS011;4786;51.270;4.456;2023-05-10T12:23:50;13.23;;;11.97;;
9496;SDS011;4786;51.270;4.456;2023-05-10T12:26:18;13.57;;;11.97;;
9496;SDS011;4786;51.270;4.456;2023-05-10T12:28:46;13.50;;;12.10;;
9496;SDS011;4786;51.270;4.456;2023-05-10T12:31:12;12.80;;;11.27;;
9496;SDS011;4786;51.270;4.456;2023-05-10T12:33:38;13.40;;;12.00;;
9496;SDS011;4786;51.270;4.456;2023-05-10T12:36:07;11.43;;;10.30;;
9496;SDS011;4786;51.270;4.456;2023-05-10T12:38:36;12.20;;;10.40;;
9496;SDS011;4786;51.270;4.456;2023-05-10T12:41:07;14.13;;;12.10;;
9496;SDS011;4786;51.270;4.456;2023-05-10T12:43:38;14.70;;;13.20;;
9496;SDS011;4786;51.270;4.456;2023-05-10T12:46:08;14.03;;;12.53;;
9496;SDS011;4786;51.270;4.456;2023-05-10T12:48:39;13.00;;;11.70;;
9496;SDS011;4786;51.270;4.456;2023-05-10T12:51:06;13.90;;;12.13;;
9496;SDS011;4786;51.270;4.456;2023-05-10T12:53:37;14.07;;;11.20;;
9496;SDS011;4786;51.270;4.456;2023-05-10T12:56:05;12.87;;;11.57;;
9496;SDS011;4786;51.270;4.456;2023-05-10T12:58:31;13.67;;;11.40;;
9496;SDS011;4786;51.270;4.456;2023-05-10T13:00:58;14.40;;;10.83;;
9496;SDS011;4786;51.270;4.456;2023-05-10T13:03:24;13.73;;;12.17;;
9496;SDS011;4786;51.270;4.456;2023-05-10T13:05:50;16.17;;;11.40;;
9496;SDS011;4786;51.270;4.456;2023-05-10T13:08:16;12.53;;;11.23;;
9496;SDS011;4786;51.270;4.456;2023-05-10T13:10:42;11.90;;;10.33;;
9496;SDS011;4786;51.270;4.456;2023-05-10T13:13:08;13.60;;;12.20;;
9496;SDS011;4786;51.270;4.456;2023-05-10T13:15:35;14.00;;;12.60;;
9496;SDS011;4786;51.270;4.456;2023-05-10T13:20:30;16.90;;;12.13;;
9496;SDS011;4786;51.270;4.456;2023-05-10T13:22:56;19.13;;;14.77;;
9496;SDS011;4786;51.270;4.456;2023-05-10T13:25:22;18.87;;;15.07;;
9496;SDS011;4786;51.270;4.456;2023-05-10T13:27:48;20.90;;;14.90;;
9496;SDS011;4786;51.270;4.456;2023-05-10T13:30:14;17.70;;;14.97;;
9496;SDS011;4786;51.270;4.456;2023-05-10T13:32:40;15.90;;;13.43;;
9496;SDS011;4786;51.270;4.456;2023-05-10T13:35:07;15.73;;;14.13;;
9496;SDS011;4786;51.270;4.456;2023-05-10T13:37:33;15.53;;;14.03;;
9496;SDS011;4786;51.270;4.456;2023-05-10T13:40:03;17.30;;;15.50;;
9496;SDS011;4786;51.270;4.456;2023-05-10T13:42:30;17.60;;;14.77;;
9496;SDS011;4786;51.270;4.456;2023-05-10T13:44:56;15.70;;;14.10;;
9496;SDS011;4786;51.270;4.456;2023-05-10T13:47:22;16.77;;;15.00;;
9496;SDS011;4786;51.270;4.456;2023-05-10T13:49:48;15.43;;;13.80;;
9496;SDS011;4786;51.270;4.456;2023-05-10T13:52:13;15.93;;;14.33;;
9496;SDS011;4786;51.270;4.456;2023-05-10T13:54:40;17.57;;;14.37;;
9496;SDS011;4786;51.270;4.456;2023-05-10T13:57:06;18.57;;;15.93;;
9496;SDS011;4786;51.270;4.456;2023-05-10T13:59:32;18.07;;;16.17;;
9496;SDS011;4786;51.270;4.456;2023-05-10T14:01:58;18.53;;;15.70;;
9496;SDS011;4786;51.270;4.456;2023-05-10T14:04:25;19.23;;;17.23;;
9496;SDS011;4786;51.270;4.456;2023-05-10T14:06:51;20.70;;;18.57;;
9496;SDS011;4786;51.270;4.456;2023-05-10T14:09:18;24.60;;;19.60;;
9496;SDS011;4786;51.270;4.456;2023-05-10T14:11:44;22.83;;;20.43;;
9496;SDS011;4786;51.270;4.456;2023-05-10T14:14:10;20.90;;;18.73;;
9496;SDS011;4786;51.270;4.456;2023-05-10T14:16:36;21.37;;;19.07;;
9496;SDS011;4786;51.270;4.456;2023-05-10T14:19:03;23.33;;;19.17;;
9496;SDS011;4786;51.270;4.456;2023-05-10T14:21:28;19.33;;;17.33;;
9496;SDS011;4786;51.270;4.456;2023-05-10T14:23:55;20.33;;;17.73;;
9496;SDS011;4786;51.270;4.456;2023-05-10T14:26:24;20.57;;;17.37;;
9496;SDS011;4786;51.270;4.456;2023-05-10T14:28:50;17.50;;;15.47;;
9496;SDS011;4786;51.270;4.456;2023-05-10T14:31:16;17.47;;;15.73;;
9496;SDS011;4786;51.270;4.456;2023-05-10T14:33:44;18.47;;;16.43;;
9496;SDS011;4786;51.270;4.456;2023-05-10T14:36:10;21.27;;;17.80;;
9496;SDS011;4786;51.270;4.456;2023-05-10T14:38:36;21.80;;;19.40;;
9496;SDS011;4786;51.270;4.456;2023-05-10T14:41:01;24.00;;;21.07;;
9496;SDS011;4786;51.270;4.456;2023-05-10T14:43:28;22.10;;;18.87;;
9496;SDS011;4786;51.270;4.456;2023-05-10T14:45:53;23.73;;;21.30;;
9496;SDS011;4786;51.270;4.456;2023-05-10T14:48:19;24.27;;;21.67;;
9496;SDS011;4786;51.270;4.456;2023-05-10T14:50:46;23.97;;;21.37;;
9496;SDS011;4786;51.270;4.456;2023-05-10T14:53:12;17.00;;;15.27;;
9496;SDS011;4786;51.270;4.456;2023-05-10T14:55:38;17.27;;;15.47;;
9496;SDS011;4786;51.270;4.456;2023-05-10T14:58:04;15.30;;;13.63;;
9496;SDS011;4786;51.270;4.456;2023-05-10T15:00:30;14.07;;;11.43;;
9496;SDS011;4786;51.270;4.456;2023-05-10T15:02:57;16.10;;;12.77;;
9496;SDS011;4786;51.270;4.456;2023-05-10T15:05:22;13.60;;;12.13;;
9496;SDS011;4786;51.270;4.456;2023-05-10T15:07:48;12.67;;;11.30;;
9496;SDS011;4786;51.270;4.456;2023-05-10T15:10:14;9.37;;;7.60;;
9496;SDS011;4786;51.270;4.456;2023-05-10T15:12:40;8.57;;;7.20;;
9496;SDS011;4786;51.270;4.456;2023-05-10T15:15:06;6.60;;;5.70;;
9496;SDS011;4786;51.270;4.456;2023-05-10T15:17:32;6.80;;;5.30;;
9496;SDS011;4786;51.270;4.456;2023-05-10T15:19:58;8.20;;;4.80;;
9496;SDS011;4786;51.270;4.456;2023-05-10T15:22:24;8.97;;;4.63;;
9496;SDS011;4786;51.270;4.456;2023-05-10T15:24:49;7.83;;;4.77;;
9496;SDS011;4786;51.270;4.456;2023-05-10T15:27:15;10.53;;;5.63;;
9496;SDS011;4786;51.270;4.456;2023-05-10T15:29:41;9.10;;;6.07;;
9496;SDS011;4786;51.270;4.456;2023-05-10T15:32:06;11.37;;;5.70;;
9496;SDS011;4786;51.270;4.456;2023-05-10T15:34:32;8.53;;;6.23;;
9496;SDS011;4786;51.270;4.456;2023-05-10T15:36:59;10.30;;;6.03;;
9496;SDS011;4786;51.270;4.456;2023-05-10T15:39:25;9.70;;;6.80;;
9496;SDS011;4786;51.270;4.456;2023-05-10T15:41:51;9.00;;;6.73;;
9496;SDS011;4786;51.270;4.456;2023-05-10T15:44:17;9.90;;;6.50;;
9496;SDS011;4786;51.270;4.456;2023-05-10T15:46:43;7.73;;;6.93;;
9496;SDS011;4786;51.270;4.456;2023-05-10T15:49:09;7.67;;;6.67;;